createdAt,value
2022-08-22T00:00:15.010Z,101775.66
2022-08-22T00:02:54.491Z,101788.31
2022-08-22T00:03:11.846Z,101770.25
2022-08-22T00:03:15.814Z,101772.91
2022-08-22T00:05:58.607Z,101763.50
2022-08-22T00:08:29.944Z,101763.50
2022-08-22T00:11:34.857Z,101770.13
2022-08-22T00:14:20.072Z,101773.28
2022-08-22T00:16:57.816Z,101770.19
2022-08-22T00:19:31.435Z,101778.78
2022-08-22T00:22:47.700Z,101775.25
2022-08-22T00:25:31.647Z,101769.75
2022-08-22T00:28:06.320Z,101765.06
2022-08-22T00:30:42.737Z,101768.19
2022-08-22T00:33:21.929Z,101771.28
2022-08-22T00:35:53.779Z,101775.19
2022-08-22T00:38:28.041Z,101770.09
2022-08-22T00:41:33.953Z,101774.38
2022-08-22T00:44:23.678Z,101777.84
2022-08-22T00:47:20.036Z,101776.25
2022-08-22T00:49:59.621Z,101775.81
2022-08-22T00:52:40.373Z,101780.91
2022-08-22T00:55:20.536Z,101779.72
2022-08-22T00:57:56.363Z,101778.53
2022-08-22T01:00:25.934Z,101782.84
2022-08-22T01:03:17.398Z,101782.84
2022-08-22T01:05:50.128Z,101780.13
2022-08-22T01:08:24.826Z,101773.47
2022-08-22T01:11:29.170Z,101775.78
2022-08-22T01:14:34.914Z,101780.06
2022-08-22T01:17:20.524Z,101779.66
2022-08-22T01:19:49.667Z,101787.00
2022-08-22T01:22:38.747Z,101785.03
2022-08-22T01:25:25.914Z,101786.59
2022-08-22T01:28:11.396Z,101778.38
2022-08-22T01:30:56.315Z,101776.38
2022-08-22T01:34:05.765Z,101784.19
2022-08-22T01:37:06.700Z,101785.78
2022-08-22T01:40:05.209Z,101788.09
2022-08-22T01:42:49.260Z,101782.63
2022-08-22T01:45:24.819Z,101787.38
2022-08-22T01:48:01.791Z,101782.69
2022-08-22T01:50:35.548Z,101778.00
2022-08-22T01:53:19.722Z,101779.16
2022-08-22T01:56:19.567Z,101776.38
2022-08-22T01:59:01.668Z,101787.66
2022-08-22T02:01:49.628Z,101784.16
2022-08-22T02:04:20.625Z,101781.38
2022-08-22T02:07:06.678Z,101784.09
2022-08-22T02:09:46.599Z,101775.53
2022-08-22T02:12:32.642Z,101772.34
2022-08-22T02:15:14.294Z,101777.81
2022-08-22T02:17:55.930Z,101771.56
2022-08-22T02:20:40.760Z,101769.22
2022-08-22T02:23:37.115Z,101769.22
2022-08-22T02:26:17.695Z,101771.16
2022-08-22T02:29:01.344Z,101765.31
2022-08-22T02:31:42.630Z,101768.44
2022-08-22T02:34:28.493Z,101764.09
2022-08-22T02:37:11.295Z,101771.16
2022-08-22T02:39:52.990Z,101763.75
2022-08-22T02:42:28.467Z,101759.81
2022-08-22T02:45:12.157Z,101752.75
2022-08-22T02:47:46.414Z,101759.41
2022-08-22T02:50:23.690Z,101757.81
2022-08-22T02:52:54.284Z,101762.88
2022-08-22T02:55:39.484Z,101760.47
2022-08-22T02:58:36.432Z,101760.41
2022-08-22T03:01:02.828Z,101756.50
2022-08-22T03:03:36.310Z,101757.75
2022-08-22T03:06:27.412Z,101751.91
2022-08-22T03:09:15.494Z,101757.00
2022-08-22T03:12:21.543Z,101761.69
2022-08-22T03:15:00.192Z,101752.72
2022-08-22T03:17:52.550Z,101749.56
2022-08-22T03:20:42.271Z,101753.47
2022-08-22T03:23:28.155Z,101751.09
2022-08-22T03:26:09.897Z,101745.56
2022-08-22T03:28:59.585Z,101744.00
2022-08-22T03:31:28.777Z,101742.03
2022-08-22T03:34:25.146Z,101742.03
2022-08-22T03:37:10.224Z,101737.34
2022-08-22T03:39:39.357Z,101742.03
2022-08-22T03:42:22.250Z,101734.22
2022-08-22T03:45:15.399Z,101732.25
2022-08-22T03:48:16.393Z,101737.31
2022-08-22T03:51:12.107Z,101735.38
2022-08-22T03:54:12.499Z,101738.06
2022-08-22T03:57:00.490Z,101729.91
2022-08-22T04:00:01.407Z,101732.66
2022-08-22T04:03:06.492Z,101734.22
2022-08-22T04:06:00.539Z,101738.91
2022-08-22T04:08:58.377Z,101736.13
2022-08-22T04:11:56.335Z,101737.28
2022-08-22T04:14:58.135Z,101733.75
2022-08-22T04:18:02.248Z,101732.97
2022-08-22T04:20:59.808Z,101736.09
2022-08-22T04:23:33.521Z,101730.56
2022-08-22T04:26:12.931Z,101734.41
2022-08-22T04:28:45.607Z,101735.59
2022-08-22T04:31:15.204Z,101747.00
2022-08-22T04:33:50.977Z,101743.91
2022-08-22T04:36:23.325Z,101747.84
2022-08-22T04:39:00.082Z,101751.34
2022-08-22T04:41:48.807Z,101751.78
2022-08-22T04:44:21.492Z,101754.47
2022-08-22T04:47:02.296Z,101752.91
2022-08-22T04:49:43.661Z,101750.94
2022-08-22T04:52:24.407Z,101748.56
2022-08-22T04:55:24.562Z,101756.78
2022-08-22T04:58:02.322Z,101756.78
2022-08-22T05:01:03.543Z,101758.72
2022-08-22T05:03:33.436Z,101760.28
2022-08-22T05:06:03.384Z,101763.41
2022-08-22T05:08:36.156Z,101762.25
2022-08-22T05:11:09.470Z,101764.97
2022-08-22T05:13:57.837Z,101754.47
2022-08-22T05:16:37.688Z,101758.78
2022-08-22T05:19:22.997Z,101756.09
2022-08-22T05:21:54.421Z,101757.66
2022-08-22T05:24:27.984Z,101752.19
2022-08-22T05:26:59.705Z,101768.59
2022-08-22T05:29:30.329Z,101766.34
2022-08-22T05:32:03.688Z,101774.97
2022-08-22T05:34:38.940Z,101780.84
2022-08-22T05:37:08.339Z,101777.75
2022-08-22T05:39:38.338Z,101787.16
2022-08-22T05:42:05.459Z,101787.94
2022-08-22T05:44:38.089Z,101789.53
2022-08-22T05:47:35.212Z,101793.81
2022-08-22T05:50:20.109Z,101795.41
2022-08-22T05:53:02.860Z,101790.72
2022-08-22T05:56:10.872Z,101795.44
2022-08-22T05:58:43.373Z,101782.19
2022-08-22T06:01:32.006Z,101790.41
2022-08-22T06:04:07.074Z,101796.66
2022-08-22T06:06:57.425Z,101792.06
2022-08-22T06:09:46.662Z,101795.25
2022-08-22T06:12:22.775Z,101796.09
2022-08-22T06:15:11.874Z,101803.16
2022-08-22T06:17:47.115Z,101796.56
2022-08-22T06:20:19.727Z,101803.28
2022-08-22T06:22:54.079Z,101801.00
2022-08-22T06:25:26.479Z,101808.41
2022-08-22T06:27:54.403Z,101811.63
2022-08-22T06:30:21.752Z,101814.81
2022-08-22T06:32:59.095Z,101816.88
2022-08-22T06:36:13.371Z,101819.72
2022-08-22T06:39:17.054Z,101816.75
2022-08-22T06:41:52.421Z,101821.56
2022-08-22T06:44:24.090Z,101822.78
2022-08-22T06:46:54.582Z,101817.41
2022-08-22T06:49:23.767Z,101821.44
2022-08-22T06:51:51.156Z,101819.97
2022-08-22T06:54:25.042Z,101824.72
2022-08-22T06:56:53.956Z,101824.34
2022-08-22T06:59:27.413Z,101823.97
2022-08-22T07:02:01.396Z,101819.34
2022-08-22T07:04:28.865Z,101822.84
2022-08-22T07:06:58.877Z,101828.78
2022-08-22T07:09:32.481Z,101822.84
2022-08-22T07:12:02.849Z,101820.53
2022-08-22T07:14:40.153Z,101826.03
2022-08-22T07:17:09.452Z,101833.91
2022-08-22T07:19:40.253Z,101823.38
2022-08-22T07:22:21.779Z,101815.16
2022-08-22T07:24:52.743Z,101811.69
2022-08-22T07:27:37.592Z,101813.72
2022-08-22T07:30:13.992Z,101820.03
2022-08-22T07:32:51.781Z,101817.28
2022-08-22T07:35:23.362Z,101812.53
2022-08-22T07:37:56.365Z,101806.91
2022-08-22T07:40:37.965Z,101809.44
2022-08-22T07:43:04.383Z,101810.97
2022-08-22T07:45:52.799Z,101799.53
2022-08-22T07:48:26.868Z,101803.22
2022-08-22T07:50:59.033Z,101806.94
2022-08-22T07:53:34.242Z,101801.38
2022-08-22T07:56:02.971Z,101800.72
2022-08-22T07:58:33.845Z,101792.63
2022-08-22T08:01:01.251Z,101789.28
2022-08-22T08:03:30.427Z,101780.66
2022-08-22T08:05:57.533Z,101777.19
2022-08-22T08:08:38.307Z,101776.25
2022-08-22T08:11:08.182Z,101770.44
2022-08-22T08:13:40.440Z,101764.69
2022-08-22T08:16:15.873Z,101765.78
2022-08-22T08:18:44.647Z,101754.59
2022-08-22T08:21:36.911Z,101754.91
2022-08-22T08:24:07.445Z,101757.41
2022-08-22T08:26:39.937Z,101757.38
2022-08-22T08:29:07.288Z,101752.72
2022-08-22T08:31:43.075Z,101754.28
2022-08-22T08:34:18.568Z,101744.81
2022-08-22T08:36:54.059Z,101753.50
2022-08-22T08:39:23.456Z,101753.78
2022-08-22T08:41:49.997Z,101755.69
2022-08-22T08:44:40.872Z,101757.56
2022-08-22T08:47:34.484Z,101746.66
2022-08-22T08:50:22.622Z,101748.72
2022-08-22T08:53:12.043Z,101751.75
2022-08-22T08:56:06.239Z,101749.09
2022-08-22T08:58:47.583Z,101751.50
2022-08-22T09:01:27.575Z,101752.72
2022-08-22T09:04:15.069Z,101750.41
2022-08-22T09:07:01.304Z,101753.19
2022-08-22T09:09:57.460Z,101753.38
2022-08-22T09:12:38.259Z,101748.84
2022-08-22T09:16:05.036Z,101740.94
2022-08-22T09:19:10.446Z,101740.44
2022-08-22T09:22:02.043Z,101739.97
2022-08-22T09:24:48.814Z,101740.81
2022-08-22T09:27:39.044Z,101734.69
2022-08-22T09:30:12.440Z,101743.28
2022-08-22T09:32:44.582Z,101739.84
2022-08-22T09:35:44.513Z,101735.31
2022-08-22T09:38:36.454Z,101738.25
2022-08-22T09:41:41.114Z,101730.47
2022-08-22T09:44:16.283Z,101731.16
2022-08-22T09:47:05.842Z,101731.56
2022-08-22T09:50:17.022Z,101735.44
2022-08-22T09:53:00.395Z,101722.50
2022-08-22T09:55:43.128Z,101724.88
2022-08-22T09:58:31.428Z,101721.19
2022-08-22T10:01:02.518Z,101718.72
2022-08-22T10:03:54.702Z,101711.94
2022-08-22T10:06:27.712Z,101717.38
2022-08-22T10:09:10.593Z,101713.97
2022-08-22T10:11:54.996Z,101709.13
2022-08-22T10:14:28.511Z,101709.00
2022-08-22T10:17:21.880Z,101708.53
2022-08-22T10:19:58.807Z,101703.34
2022-08-22T10:23:10.735Z,101702.66
2022-08-22T10:25:51.312Z,101696.44
2022-08-22T10:28:31.429Z,101694.59
2022-08-22T10:31:18.910Z,101687.47
2022-08-22T10:34:07.996Z,101685.59
2022-08-22T10:37:12.070Z,101689.00
2022-08-22T10:39:47.583Z,101689.94
2022-08-22T10:42:30.142Z,101688.56
2022-08-22T10:45:04.320Z,101673.81
2022-08-22T10:47:39.212Z,101678.28
2022-08-22T10:50:31.181Z,101670.25
2022-08-22T10:53:29.601Z,101675.50
2022-08-22T10:56:23.464Z,101677.34
2022-08-22T10:59:07.944Z,101669.88
2022-08-22T11:01:47.036Z,101667.91
2022-08-22T11:04:44.284Z,101670.53
2022-08-22T11:07:13.324Z,101670.25
2022-08-22T11:09:43.219Z,101671.31
2022-08-22T11:12:42.639Z,101671.13
2022-08-22T11:15:43.127Z,101671.53
2022-08-22T11:18:36.617Z,101675.22
2022-08-22T11:21:10.913Z,101671.25
2022-08-22T11:23:45.079Z,101676.16
2022-08-22T11:26:47.519Z,101669.09
2022-08-22T11:29:38.616Z,101660.50
2022-08-22T11:32:16.928Z,101662.06
2022-08-22T11:34:47.803Z,101663.72
2022-08-22T11:37:42.177Z,101661.44
2022-08-22T11:40:35.580Z,101654.41
2022-08-22T11:43:32.466Z,101653.81
2022-08-22T11:46:13.843Z,101650.97
2022-08-22T11:49:04.637Z,101657.03
2022-08-22T11:51:53.063Z,101660.69
2022-08-22T11:54:43.129Z,101658.66
2022-08-22T11:57:25.867Z,101656.56
2022-08-22T11:59:55.748Z,101651.63
2022-08-22T12:02:47.693Z,101650.88
2022-08-22T12:05:24.483Z,101640.56
2022-08-22T12:08:03.741Z,101644.38
2022-08-22T12:10:34.123Z,101640.94
2022-08-22T12:13:13.363Z,101649.28
2022-08-22T12:15:53.946Z,101638.09
2022-08-22T12:18:44.987Z,101649.56
2022-08-22T12:21:39.392Z,101640.78
2022-08-22T12:24:40.869Z,101644.50
2022-08-22T12:27:37.923Z,101645.53
2022-08-22T12:30:18.211Z,101632.22
2022-08-22T12:32:59.138Z,101644.19
2022-08-22T12:35:30.318Z,101631.47
2022-08-22T12:38:28.216Z,101633.88
2022-08-22T12:41:08.601Z,101632.41
2022-08-22T12:44:00.982Z,101635.84
2022-08-22T12:47:02.013Z,101620.34
2022-08-22T12:49:52.932Z,101628.84
2022-08-22T12:52:52.303Z,101621.50
2022-08-22T12:55:33.680Z,101617.22
2022-08-22T12:58:23.307Z,101616.59
2022-08-22T13:00:50.751Z,101615.88
2022-08-22T13:03:32.525Z,101614.59
2022-08-22T13:06:05.056Z,101603.22
2022-08-22T13:08:44.491Z,101604.16
2022-08-22T13:11:22.740Z,101607.41
2022-08-22T13:13:56.060Z,101603.06
2022-08-22T13:16:25.371Z,101593.84
2022-08-22T13:19:08.028Z,101602.69
2022-08-22T13:21:46.697Z,101602.81
2022-08-22T13:24:51.861Z,101596.00
2022-08-22T13:27:29.824Z,101600.44
2022-08-22T13:30:00.862Z,101597.00
2022-08-22T13:32:44.376Z,101603.81
2022-08-22T13:35:23.928Z,101602.84
2022-08-22T13:37:57.264Z,101598.16
2022-08-22T13:40:34.032Z,101583.91
2022-08-22T13:43:11.140Z,101575.72
2022-08-22T13:45:40.541Z,101579.38
2022-08-22T13:48:13.775Z,101574.00
2022-08-22T13:51:04.627Z,101580.94
2022-08-22T13:53:36.233Z,101577.72
2022-08-22T13:56:15.659Z,101577.69
2022-08-22T13:58:50.440Z,101577.72
2022-08-22T14:01:31.088Z,101573.84
2022-08-22T14:04:28.297Z,101578.34
2022-08-22T14:07:23.799Z,101573.06
2022-08-22T14:10:15.010Z,101574.94
2022-08-22T14:13:11.178Z,101561.63
2022-08-22T14:15:45.717Z,101566.72
2022-08-22T14:18:16.020Z,101566.09
2022-08-22T14:20:47.585Z,101560.84
2022-08-22T14:23:29.477Z,101563.78
2022-08-22T14:25:57.272Z,101559.91
2022-08-22T14:28:34.060Z,101561.63
2022-08-22T14:31:07.421Z,101559.31
2022-08-22T14:33:39.784Z,101562.88
2022-08-22T14:36:19.745Z,101555.41
2022-08-22T14:39:22.287Z,101553.06
2022-08-22T14:41:58.623Z,101548.84
2022-08-22T14:44:43.901Z,101545.97
2022-08-22T14:47:55.449Z,101543.00
2022-08-22T14:50:53.003Z,101550.44
2022-08-22T14:53:19.734Z,101541.59
2022-08-22T14:56:06.496Z,101538.81
2022-08-22T14:58:37.772Z,101533.06
2022-08-22T15:01:11.569Z,101534.31
2022-08-22T15:03:40.885Z,101531.06
2022-08-22T15:06:17.043Z,101532.44
2022-08-22T15:08:50.685Z,101531.97
2022-08-22T15:11:17.008Z,101523.44
2022-08-22T15:13:53.005Z,101530.44
2022-08-22T15:16:24.863Z,101531.97
2022-08-22T15:18:51.955Z,101521.16
2022-08-22T15:21:24.352Z,101527.81
2022-08-22T15:23:54.394Z,101513.22
2022-08-22T15:26:41.275Z,101517.09
2022-08-22T15:29:17.455Z,101519.00
2022-08-22T15:31:46.837Z,101525.94
2022-08-22T15:34:21.648Z,101520.06
2022-08-22T15:37:09.935Z,101514.16
2022-08-22T15:40:12.659Z,101512.13
2022-08-22T15:42:45.395Z,101509.94
2022-08-22T15:45:34.038Z,101512.03
2022-08-22T15:48:04.505Z,101518.06
2022-08-22T15:51:02.754Z,101516.53
2022-08-22T15:53:44.464Z,101515.41
2022-08-22T15:56:10.786Z,101508.81
2022-08-22T15:58:48.124Z,101505.72
2022-08-22T16:01:20.464Z,101507.66
2022-08-22T16:03:56.779Z,101506.53
2022-08-22T16:06:42.396Z,101499.59
2022-08-22T16:09:29.130Z,101499.56
2022-08-22T16:11:57.285Z,101501.38
2022-08-22T16:14:35.981Z,101492.31
2022-08-22T16:17:25.464Z,101490.72
2022-08-22T16:20:19.499Z,101486.66
2022-08-22T16:22:58.884Z,101491.88
2022-08-22T16:25:44.260Z,101480.13
2022-08-22T16:28:56.786Z,101482.53
2022-08-22T16:31:29.295Z,101482.00
2022-08-22T16:34:17.360Z,101472.84
2022-08-22T16:37:04.029Z,101480.00
2022-08-22T16:40:06.747Z,101480.91
2022-08-22T16:42:36.266Z,101477.38
2022-08-22T16:45:02.781Z,101479.88
2022-08-22T16:47:40.661Z,101477.19
2022-08-22T16:50:25.402Z,101470.50
2022-08-22T16:52:59.644Z,101468.38
2022-08-22T16:55:29.208Z,101464.81
2022-08-22T16:58:13.674Z,101468.75
2022-08-22T17:00:46.108Z,101464.44
2022-08-22T17:03:49.685Z,101467.94
2022-08-22T17:06:33.756Z,101465.63
2022-08-22T17:09:40.164Z,101466.63
2022-08-22T17:12:24.608Z,101461.97
2022-08-22T17:15:06.796Z,101464.56
2022-08-22T17:17:59.585Z,101457.25
2022-08-22T17:21:01.541Z,101459.72
2022-08-22T17:23:35.400Z,101459.66
2022-08-22T17:26:04.542Z,101461.44
2022-08-22T17:28:56.016Z,101463.22
2022-08-22T17:31:54.095Z,101461.44
2022-08-22T17:34:32.355Z,101455.94
2022-08-22T17:37:23.251Z,101458.91
2022-08-22T17:40:19.211Z,101465.28
2022-08-22T17:43:01.622Z,101468.50
2022-08-22T17:45:43.137Z,101470.03
2022-08-22T17:48:18.543Z,101475.03
2022-08-22T17:50:55.996Z,101472.50
2022-08-22T17:53:28.909Z,101474.63
2022-08-22T17:56:06.643Z,101471.63
2022-08-22T17:58:44.124Z,101475.41
2022-08-22T18:01:37.739Z,101478.78
2022-08-22T18:04:08.380Z,101482.13
2022-08-22T18:06:43.935Z,101477.75
2022-08-22T18:09:26.278Z,101479.28
2022-08-22T18:12:01.058Z,101490.72
2022-08-22T18:14:45.032Z,101489.31
2022-08-22T18:17:33.020Z,101488.16
2022-08-22T18:20:10.236Z,101485.41
2022-08-22T18:22:39.765Z,101490.91
2022-08-22T18:25:18.102Z,101494.28
2022-08-22T18:27:53.710Z,101487.38
2022-08-22T18:30:28.432Z,101492.84
2022-08-22T18:33:05.944Z,101490.97
2022-08-22T18:35:53.884Z,101494.31
2022-08-22T18:38:25.084Z,101494.13
2022-08-22T18:41:08.885Z,101497.16
2022-08-22T18:43:41.604Z,101496.25
2022-08-22T18:46:40.851Z,101501.72
2022-08-22T18:49:15.434Z,101500.81
2022-08-22T18:51:43.529Z,101502.88
2022-08-22T18:54:11.396Z,101510.19
2022-08-22T18:56:47.900Z,101513.50
2022-08-22T18:59:46.858Z,101513.31
2022-08-22T19:02:16.267Z,101514.38
2022-08-22T19:04:54.652Z,101518.47
2022-08-22T19:07:30.106Z,101530.00
2022-08-22T19:10:52.809Z,101535.69
2022-08-22T19:14:05.606Z,101535.44
2022-08-22T19:16:59.609Z,101533.63
2022-08-22T19:20:15.647Z,101536.22
2022-08-22T19:22:43.115Z,101543.16
2022-08-22T19:25:18.460Z,101547.66
2022-08-22T19:28:08.721Z,101549.34
2022-08-22T19:31:16.733Z,101551.41
2022-08-22T19:33:49.743Z,101547.22
2022-08-22T19:36:31.199Z,101551.28
2022-08-22T19:39:10.448Z,101550.28
2022-08-22T19:41:44.210Z,101550.34
2022-08-22T19:44:32.865Z,101548.88
2022-08-22T19:47:20.774Z,101561.28
2022-08-22T19:49:50.086Z,101549.94
2022-08-22T19:52:16.575Z,101550.84
2022-08-22T19:54:51.809Z,101545.47
2022-08-22T19:57:55.342Z,101541.28
2022-08-22T20:00:26.613Z,101553.56
2022-08-22T20:03:13.443Z,101553.19
2022-08-22T20:06:22.137Z,101543.41
2022-08-22T20:09:27.734Z,101550.25
2022-08-22T20:12:24.352Z,101549.50
2022-08-22T20:14:51.663Z,101551.19
2022-08-22T20:17:24.053Z,101550.03
2022-08-22T20:20:18.563Z,101552.44
2022-08-22T20:23:05.103Z,101551.69
2022-08-22T20:25:53.020Z,101559.63
2022-08-22T20:28:31.899Z,101556.16
2022-08-22T20:31:02.341Z,101552.63
2022-08-22T20:33:37.037Z,101540.53
2022-08-22T20:36:13.801Z,101538.22
2022-08-22T20:38:58.652Z,101544.09
2022-08-22T20:41:40.963Z,101539.81
2022-08-22T20:44:22.680Z,101538.28
2022-08-22T20:46:53.490Z,101533.22
2022-08-22T20:49:41.629Z,101533.63
2022-08-22T20:52:11.350Z,101532.88
2022-08-22T20:54:41.005Z,101539.19
2022-08-22T20:57:19.308Z,101536.88
2022-08-22T20:59:55.840Z,101534.56
2022-08-22T21:02:32.228Z,101538.91
2022-08-22T21:05:18.659Z,101525.56
2022-08-22T21:07:48.105Z,101535.34
2022-08-22T21:10:42.965Z,101539.31
2022-08-22T21:13:17.367Z,101538.13
2022-08-22T21:15:47.532Z,101536.97
2022-08-22T21:18:30.873Z,101533.03
2022-08-22T21:21:08.360Z,101533.03
2022-08-22T21:23:47.645Z,101522.06
2022-08-22T21:26:24.600Z,101532.28
2022-08-22T21:28:57.266Z,101527.19
2022-08-22T21:31:27.173Z,101527.97
2022-08-22T21:33:55.631Z,101531.13
2022-08-22T21:36:27.420Z,101520.16
2022-08-22T21:38:57.772Z,101527.25
2022-08-22T21:41:32.022Z,101523.31
2022-08-22T21:44:34.452Z,101526.47
2022-08-22T21:47:31.162Z,101525.31
2022-08-22T21:50:09.737Z,101522.56
2022-08-22T21:52:39.086Z,101519.41
2022-08-22T21:55:26.236Z,101521.75
2022-08-22T21:58:04.412Z,101516.66
2022-08-22T22:00:57.364Z,101522.19
2022-08-22T22:03:36.016Z,101524.53
2022-08-22T22:06:05.978Z,101521.41
2022-08-22T22:08:33.684Z,101520.25
2022-08-22T22:11:06.164Z,101526.91
2022-08-22T22:13:35.115Z,101516.31
2022-08-22T22:16:01.640Z,101525.31
2022-08-22T22:18:32.829Z,101524.94
2022-08-22T22:21:00.418Z,101521.81
2022-08-22T22:23:27.923Z,101522.97
2022-08-22T22:25:57.355Z,101520.25
2022-08-22T22:28:29.692Z,101521.84
2022-08-22T22:30:56.572Z,101520.28
2022-08-22T22:33:28.432Z,101523.81
2022-08-22T22:35:57.241Z,101517.16
2022-08-22T22:38:24.492Z,101521.47
2022-08-22T22:40:51.962Z,101525.41
2022-08-22T22:43:18.615Z,101517.56
2022-08-22T22:45:45.193Z,101514.84
2022-08-22T22:48:12.032Z,101525.81
2022-08-22T22:50:44.748Z,101525.84
2022-08-22T22:53:11.986Z,101534.03
2022-08-22T22:56:00.412Z,101526.59
2022-08-22T22:58:28.545Z,101522.28
2022-08-22T23:00:55.847Z,101527.00
2022-08-22T23:03:23.026Z,101531.72
2022-08-22T23:05:49.393Z,101541.09
2022-08-22T23:08:15.803Z,101529.72
2022-08-22T23:10:42.233Z,101536.81
2022-08-22T23:13:09.308Z,101524.25
2022-08-22T23:15:37.347Z,101531.28
2022-08-22T23:18:03.887Z,101532.47
2022-08-22T23:20:30.419Z,101532.88
2022-08-22T23:22:56.983Z,101535.63
2022-08-22T23:25:23.388Z,101535.63
2022-08-22T23:27:52.196Z,101528.19
2022-08-22T23:30:19.481Z,101528.94
2022-08-22T23:32:45.856Z,101530.13
2022-08-22T23:35:12.268Z,101529.34
2022-08-22T23:37:38.683Z,101522.31
2022-08-22T23:40:08.021Z,101526.97
2022-08-22T23:42:34.894Z,101526.97
2022-08-22T23:45:01.297Z,101525.44
2022-08-22T23:47:27.880Z,101520.69
2022-08-22T23:49:54.498Z,101519.53
2022-08-22T23:52:20.881Z,101514.06
2022-08-22T23:54:47.892Z,101514.44
2022-08-22T23:57:21.050Z,101512.84
2022-08-22T23:59:58.393Z,101514.41
